createdAt,value
2023-11-25T00:00:53.246Z,100193.16
2023-11-25T00:03:19.651Z,100190.97
2023-11-25T00:05:46.110Z,100190.13
2023-11-25T00:08:12.472Z,100183.91
2023-11-25T00:10:39.608Z,100187.50
2023-11-25T00:13:07.032Z,100181.16
2023-11-25T00:15:33.601Z,100178.25
2023-11-25T00:18:00.043Z,100174.97
2023-11-25T00:20:26.610Z,100170.31
2023-11-25T00:22:53.672Z,100181.50
2023-11-25T00:25:20.847Z,100176.78
2023-11-25T00:27:47.572Z,100167.31
2023-11-25T00:30:15.346Z,100173.16
2023-11-25T00:32:42.548Z,100175.97
2023-11-25T00:35:09.882Z,100166.66
2023-11-25T00:37:36.718Z,100185.38
2023-11-25T00:40:06.114Z,100184.09
2023-11-25T00:42:32.565Z,100175.75
2023-11-25T00:44:59.598Z,100189.81
2023-11-25T00:47:28.601Z,100188.25
2023-11-25T00:49:55.131Z,100188.47
2023-11-25T00:52:21.502Z,100183.97
2023-11-25T00:54:47.851Z,100177.41
2023-11-25T00:57:14.208Z,100179.47
2023-11-25T00:59:40.535Z,100179.94
2023-11-25T01:02:06.975Z,100178.22
2023-11-25T01:04:33.449Z,100176.69
2023-11-25T01:06:59.813Z,100177.06
2023-11-25T01:09:29.366Z,100167.75
2023-11-25T01:11:56.567Z,100173.53
2023-11-25T01:14:23.036Z,100165.22
2023-11-25T01:16:53.001Z,100172.97
2023-11-25T01:19:19.439Z,100168.69
2023-11-25T01:21:45.953Z,100172.81
2023-11-25T01:24:12.764Z,100169.75
2023-11-25T01:26:42.143Z,100167.19
2023-11-25T01:29:08.710Z,100164.50
2023-11-25T01:31:35.189Z,100152.88
2023-11-25T01:34:02.717Z,100156.53
2023-11-25T01:36:29.240Z,100155.81
2023-11-25T01:38:55.581Z,100153.34
2023-11-25T01:41:21.933Z,100152.38
2023-11-25T01:43:48.548Z,100152.97
2023-11-25T01:46:27.651Z,100148.03
2023-11-25T01:48:54.216Z,100149.84
2023-11-25T01:51:20.918Z,100154.34
2023-11-25T01:53:47.300Z,100148.53
2023-11-25T01:56:15.336Z,100149.72
2023-11-25T01:58:41.734Z,100155.75
2023-11-25T02:01:08.430Z,100152.16
2023-11-25T02:03:34.920Z,100149.44
2023-11-25T02:06:01.273Z,100144.78
2023-11-25T02:08:27.633Z,100137.19
2023-11-25T02:10:55.012Z,100140.28
2023-11-25T02:13:24.188Z,100135.19
2023-11-25T02:15:51.726Z,100129.38
2023-11-25T02:18:18.110Z,100132.84
2023-11-25T02:20:46.122Z,100131.25
2023-11-25T02:23:26.159Z,100134.75
2023-11-25T02:25:53.766Z,100127.91
2023-11-25T02:28:21.037Z,100121.44
2023-11-25T02:30:48.442Z,100120.88
2023-11-25T02:33:15.829Z,100116.09
2023-11-25T02:35:43.721Z,100122.22
2023-11-25T02:38:13.435Z,100122.44
2023-11-25T02:40:41.427Z,100124.31
2023-11-25T02:43:12.275Z,100116.09
2023-11-25T02:45:39.949Z,100109.34
2023-11-25T02:48:07.176Z,100110.53
2023-11-25T02:50:36.546Z,100110.94
2023-11-25T02:53:05.486Z,100107.00
2023-11-25T02:55:31.849Z,100101.50
2023-11-25T02:57:58.221Z,100106.13
2023-11-25T03:00:24.575Z,100101.19
2023-11-25T03:02:54.739Z,100102.09
2023-11-25T03:05:23.412Z,100100.00
2023-11-25T03:07:51.550Z,100087.56
2023-11-25T03:10:18.163Z,100092.00
2023-11-25T03:12:48.615Z,100085.22
2023-11-25T03:15:16.457Z,100089.16
2023-11-25T03:17:42.853Z,100084.41
2023-11-25T03:20:09.707Z,100090.31
2023-11-25T03:22:36.157Z,100095.88
2023-11-25T03:25:02.995Z,100090.63
2023-11-25T03:27:32.302Z,100075.22
2023-11-25T03:30:08.078Z,100082.94
2023-11-25T03:32:35.840Z,100071.06
2023-11-25T03:35:02.473Z,100063.91
2023-11-25T03:37:28.895Z,100056.91
2023-11-25T03:39:55.257Z,100064.84
2023-11-25T03:42:21.647Z,100055.44
2023-11-25T03:44:48.413Z,100055.03
2023-11-25T03:47:14.893Z,100064.19
2023-11-25T03:49:41.585Z,100051.19
2023-11-25T03:52:08.102Z,100044.41
2023-11-25T03:54:34.536Z,100036.25
2023-11-25T03:57:00.888Z,100023.94
2023-11-25T03:59:27.317Z,100033.16
2023-11-25T04:01:53.869Z,100031.81
2023-11-25T04:04:20.519Z,100021.91
2023-11-25T04:06:48.278Z,100033.38
2023-11-25T04:09:14.863Z,100027.78
2023-11-25T04:11:44.360Z,100017.00
2023-11-25T04:14:10.802Z,100022.72
2023-11-25T04:16:37.264Z,100015.28
2023-11-25T04:19:04.404Z,100014.38
2023-11-25T04:21:30.766Z,100020.03
2023-11-25T04:23:57.288Z,100017.88
2023-11-25T04:26:25.814Z,100022.59
2023-11-25T04:28:52.484Z,100034.06
2023-11-25T04:31:19.022Z,100034.03
2023-11-25T04:33:45.809Z,100040.56
2023-11-25T04:36:13.064Z,100039.31
2023-11-25T04:38:40.758Z,100041.13
2023-11-25T04:41:07.263Z,100030.28
2023-11-25T04:43:33.692Z,100031.53
2023-11-25T04:46:03.341Z,100035.63
2023-11-25T04:48:29.793Z,100038.63
2023-11-25T04:50:56.410Z,100024.34
2023-11-25T04:53:22.953Z,100029.81
2023-11-25T04:55:49.514Z,100032.53
2023-11-25T04:58:16.029Z,100022.00
2023-11-25T05:00:42.443Z,100029.34
2023-11-25T05:03:09.440Z,100019.06
2023-11-25T05:05:35.905Z,100012.56
2023-11-25T05:08:02.309Z,100019.63
2023-11-25T05:10:29.588Z,100016.75
2023-11-25T05:12:56.173Z,100017.44
2023-11-25T05:15:26.507Z,100013.22
2023-11-25T05:17:56.048Z,100007.50
2023-11-25T05:20:22.772Z,100005.72
2023-11-25T05:22:49.428Z,100000.00
2023-11-25T05:25:16.847Z,100007.59
2023-11-25T05:27:43.867Z,99995.28
2023-11-25T05:30:13.933Z,99986.59
2023-11-25T05:32:44.066Z,99999.56
2023-11-25T05:35:12.362Z,99988.34
2023-11-25T05:37:38.866Z,99992.13
2023-11-25T05:40:09.741Z,100002.13
2023-11-25T05:42:38.386Z,100001.38
2023-11-25T05:45:09.619Z,99995.69
2023-11-25T05:47:36.076Z,100001.66
2023-11-25T05:50:03.080Z,99991.97
2023-11-25T05:52:29.506Z,99989.31
2023-11-25T05:54:56.927Z,99979.41
2023-11-25T05:57:23.762Z,99976.66
2023-11-25T05:59:50.135Z,99973.34
2023-11-25T06:02:16.688Z,99972.81
2023-11-25T06:04:43.768Z,99962.84
2023-11-25T06:07:10.577Z,99963.00
2023-11-25T06:09:36.924Z,99961.19
2023-11-25T06:12:03.419Z,99954.19
2023-11-25T06:14:33.899Z,99956.91
2023-11-25T06:17:01.620Z,99969.59
2023-11-25T06:19:30.292Z,99972.25
2023-11-25T06:21:56.788Z,99968.88
2023-11-25T06:24:23.250Z,99968.03
2023-11-25T06:26:51.147Z,99967.06
2023-11-25T06:29:17.678Z,99970.38
2023-11-25T06:31:46.652Z,99975.91
2023-11-25T06:34:13.324Z,99983.00
2023-11-25T06:36:41.103Z,99982.13
2023-11-25T06:39:08.895Z,99974.13
2023-11-25T06:41:35.448Z,99983.97
2023-11-25T06:44:02.615Z,99984.66
2023-11-25T06:46:29.203Z,99979.69
2023-11-25T06:48:55.675Z,99973.72
2023-11-25T06:51:22.041Z,99970.63
2023-11-25T06:53:48.404Z,99978.38
2023-11-25T06:56:17.846Z,99977.69
2023-11-25T06:58:44.210Z,99986.72
2023-11-25T07:01:17.396Z,99985.19
2023-11-25T07:03:43.819Z,99986.94
2023-11-25T07:06:10.239Z,99987.88
2023-11-25T07:08:36.630Z,99998.69
2023-11-25T07:11:06.276Z,100000.13
2023-11-25T07:13:33.402Z,99998.63
2023-11-25T07:16:02.036Z,100002.13
2023-11-25T07:18:28.460Z,99996.69
2023-11-25T07:20:56.608Z,100002.88
2023-11-25T07:23:23.669Z,100009.06
2023-11-25T07:25:50.196Z,100021.88
2023-11-25T07:28:17.233Z,100016.72
2023-11-25T07:30:45.358Z,100028.41
2023-11-25T07:33:11.830Z,100027.66
2023-11-25T07:35:38.906Z,100034.78
2023-11-25T07:38:05.353Z,100045.13
2023-11-25T07:40:31.789Z,100042.25
2023-11-25T07:42:59.453Z,100045.88
2023-11-25T07:45:26.776Z,100041.84
2023-11-25T07:47:54.047Z,100062.28
2023-11-25T07:50:20.748Z,100052.34
2023-11-25T07:52:47.233Z,100048.16
2023-11-25T07:55:13.628Z,100051.28
2023-11-25T07:57:40.707Z,100051.03
2023-11-25T08:00:16.717Z,100056.53
2023-11-25T08:02:45.919Z,100057.88
2023-11-25T08:05:12.403Z,100059.63
2023-11-25T08:07:38.897Z,100074.19
2023-11-25T08:10:07.726Z,100082.25
2023-11-25T08:12:34.307Z,100080.59
2023-11-25T08:15:00.698Z,100095.22
2023-11-25T08:17:28.282Z,100103.34
2023-11-25T08:19:54.718Z,100101.22
2023-11-25T08:22:21.113Z,100113.22
2023-11-25T08:24:47.475Z,100109.41
2023-11-25T08:27:14.162Z,100095.75
2023-11-25T08:29:42.900Z,100100.13
2023-11-25T08:32:09.473Z,100093.22
2023-11-25T08:34:35.862Z,100101.13
2023-11-25T08:37:04.833Z,100101.41
2023-11-25T08:39:33.826Z,100099.81
2023-11-25T08:42:00.419Z,100115.00
2023-11-25T08:44:28.163Z,100122.56
2023-11-25T08:46:56.162Z,100117.47
2023-11-25T08:49:23.410Z,100127.25
2023-11-25T08:51:52.034Z,100132.41
2023-11-25T08:54:19.511Z,100133.59
2023-11-25T08:56:46.772Z,100133.88
2023-11-25T08:59:21.636Z,100137.53
2023-11-25T09:01:49.546Z,100152.97
2023-11-25T09:04:26.519Z,100155.88
2023-11-25T09:06:53.764Z,100164.84
2023-11-25T09:09:21.681Z,100163.09
2023-11-25T09:11:51.699Z,100166.41
2023-11-25T09:14:20.085Z,100162.25
2023-11-25T09:16:47.082Z,100166.81
2023-11-25T09:19:14.531Z,100163.16
2023-11-25T09:21:42.271Z,100166.69
2023-11-25T09:24:08.968Z,100167.84
2023-11-25T09:26:35.307Z,100162.75
2023-11-25T09:29:01.680Z,100161.75
2023-11-25T09:31:28.246Z,100152.38
2023-11-25T09:33:55.686Z,100159.00
2023-11-25T09:36:24.153Z,100161.78
2023-11-25T09:38:50.599Z,100159.47
2023-11-25T09:41:17.096Z,100149.81
2023-11-25T09:43:43.968Z,100165.81
2023-11-25T09:46:10.831Z,100173.63
2023-11-25T09:48:37.198Z,100168.94
2023-11-25T09:51:04.344Z,100166.28
2023-11-25T09:53:34.130Z,100174.38
2023-11-25T09:56:05.498Z,100171.78
2023-11-25T09:58:38.434Z,100173.19
2023-11-25T10:01:13.082Z,100172.84
2023-11-25T10:03:44.281Z,100179.84
2023-11-25T10:06:10.962Z,100183.09
2023-11-25T10:08:37.365Z,100194.13
2023-11-25T10:11:08.973Z,100201.66
2023-11-25T10:13:36.726Z,100197.94
2023-11-25T10:16:04.239Z,100211.59
2023-11-25T10:18:31.741Z,100214.53
2023-11-25T10:20:59.278Z,100210.81
2023-11-25T10:23:26.960Z,100210.50
2023-11-25T10:25:54.280Z,100206.44
2023-11-25T10:28:22.345Z,100214.84
2023-11-25T10:30:56.583Z,100209.06
2023-11-25T10:33:29.741Z,100202.38
2023-11-25T10:35:57.156Z,100205.78
2023-11-25T10:38:28.227Z,100206.78
2023-11-25T10:40:59.973Z,100211.97
2023-11-25T10:43:27.569Z,100219.28
2023-11-25T10:46:10.838Z,100228.22
2023-11-25T10:48:41.141Z,100224.47
2023-11-25T10:51:09.435Z,100225.53
2023-11-25T10:53:38.887Z,100220.63
2023-11-25T10:56:05.785Z,100222.53
2023-11-25T10:58:32.434Z,100228.81
2023-11-25T11:00:59.538Z,100222.59
2023-11-25T11:03:41.787Z,100222.94
2023-11-25T11:06:10.960Z,100223.69
2023-11-25T11:08:44.291Z,100221.56
2023-11-25T11:11:18.045Z,100228.72
2023-11-25T11:13:53.232Z,100228.53
2023-11-25T11:16:58.484Z,100242.94
2023-11-25T11:19:43.671Z,100237.56
2023-11-25T11:22:13.766Z,100253.53
2023-11-25T11:24:59.585Z,100246.84
2023-11-25T11:27:31.058Z,100246.41
2023-11-25T11:30:09.993Z,100256.66
2023-11-25T11:32:36.786Z,100254.44
2023-11-25T11:35:04.067Z,100262.31
2023-11-25T11:37:42.444Z,100260.81
2023-11-25T11:40:09.025Z,100268.50
2023-11-25T11:42:35.860Z,100261.84
2023-11-25T11:45:12.732Z,100272.06
2023-11-25T11:47:40.866Z,100263.63
2023-11-25T11:50:09.877Z,100253.22
2023-11-25T11:52:47.175Z,100261.69
2023-11-25T11:55:32.543Z,100259.34
2023-11-25T11:58:14.489Z,100256.63
2023-11-25T12:01:00.934Z,100272.78
2023-11-25T12:03:27.854Z,100262.81
2023-11-25T12:05:54.573Z,100265.78
2023-11-25T12:08:21.710Z,100257.50
2023-11-25T12:10:48.794Z,100265.75
2023-11-25T12:13:32.262Z,100266.53
2023-11-25T12:16:04.658Z,100275.22
2023-11-25T12:18:33.318Z,100278.56
2023-11-25T12:21:03.620Z,100282.28
2023-11-25T12:23:41.180Z,100274.53
2023-11-25T12:26:18.438Z,100287.88
2023-11-25T12:28:44.936Z,100289.47
2023-11-25T12:31:11.349Z,100296.53
2023-11-25T12:33:37.755Z,100294.00
2023-11-25T12:36:04.252Z,100308.56
2023-11-25T12:38:32.720Z,100308.06
2023-11-25T12:40:59.230Z,100314.41
2023-11-25T12:43:25.667Z,100310.50
2023-11-25T12:45:52.277Z,100324.34
2023-11-25T12:48:30.608Z,100324.84
2023-11-25T12:51:07.798Z,100314.72
2023-11-25T12:53:35.941Z,100324.13
2023-11-25T12:56:02.555Z,100321.97
2023-11-25T12:58:29.113Z,100321.16
2023-11-25T13:00:57.777Z,100329.97
2023-11-25T13:03:25.635Z,100329.03
2023-11-25T13:05:58.306Z,100326.50
2023-11-25T13:08:28.920Z,100335.56
2023-11-25T13:10:56.846Z,100338.53
2023-11-25T13:13:24.147Z,100349.19
2023-11-25T13:15:51.232Z,100350.97
2023-11-25T13:18:17.568Z,100353.22
2023-11-25T13:20:43.899Z,100351.75
2023-11-25T13:23:11.765Z,100363.47
2023-11-25T13:25:38.186Z,100361.69
2023-11-25T13:28:04.744Z,100363.91
2023-11-25T13:30:33.432Z,100373.59
2023-11-25T13:32:59.829Z,100368.78
2023-11-25T13:35:26.268Z,100381.41
2023-11-25T13:37:54.831Z,100378.84
2023-11-25T13:40:21.212Z,100382.06
2023-11-25T13:42:47.958Z,100394.22
2023-11-25T13:45:14.806Z,100414.72
2023-11-25T13:47:43.287Z,100425.50
2023-11-25T13:50:11.578Z,100437.88
2023-11-25T13:52:38.827Z,100434.72
2023-11-25T13:55:06.548Z,100439.13
2023-11-25T13:57:32.908Z,100438.22
2023-11-25T13:59:59.972Z,100434.53
2023-11-25T14:02:28.757Z,100430.03
2023-11-25T14:04:55.331Z,100433.84
2023-11-25T14:07:22.798Z,100436.72
2023-11-25T14:09:49.184Z,100434.75
2023-11-25T14:12:15.529Z,100429.13
2023-11-25T14:14:42.131Z,100427.72
2023-11-25T14:17:12.239Z,100429.19
2023-11-25T14:19:40.167Z,100416.66
2023-11-25T14:22:06.903Z,100439.88
2023-11-25T14:24:33.333Z,100443.25
2023-11-25T14:27:01.852Z,100434.75
2023-11-25T14:29:28.231Z,100441.53
2023-11-25T14:31:54.554Z,100449.53
2023-11-25T14:34:21.901Z,100462.00
2023-11-25T14:36:48.377Z,100461.69
2023-11-25T14:39:19.451Z,100449.34
2023-11-25T14:41:48.815Z,100462.22
2023-11-25T14:44:15.413Z,100480.22
2023-11-25T14:46:42.635Z,100482.03
2023-11-25T14:49:09.044Z,100478.69
2023-11-25T14:51:35.638Z,100500.72
2023-11-25T14:54:02.167Z,100499.41
2023-11-25T14:56:28.615Z,100486.47
2023-11-25T14:58:55.030Z,100497.13
2023-11-25T15:01:21.986Z,100512.81
2023-11-25T15:03:48.594Z,100508.66
2023-11-25T15:06:14.981Z,100512.41
2023-11-25T15:08:41.319Z,100522.97
2023-11-25T15:11:08.440Z,100526.13
2023-11-25T15:13:34.817Z,100525.97
2023-11-25T15:16:01.818Z,100535.03
2023-11-25T15:18:29.090Z,100539.22
2023-11-25T15:20:55.708Z,100548.31
2023-11-25T15:23:22.902Z,100545.03
2023-11-25T15:25:49.602Z,100545.66
2023-11-25T15:28:17.371Z,100556.13
2023-11-25T15:30:44.170Z,100565.50
2023-11-25T15:33:12.650Z,100565.16
2023-11-25T15:35:39.355Z,100559.56
2023-11-25T15:38:05.758Z,100571.31
2023-11-25T15:40:32.223Z,100568.38
2023-11-25T15:42:58.575Z,100576.06
2023-11-25T15:45:24.937Z,100578.59
2023-11-25T15:47:51.770Z,100570.97
2023-11-25T15:50:18.288Z,100572.91
2023-11-25T15:52:44.683Z,100581.25
2023-11-25T15:55:12.504Z,100585.94
2023-11-25T15:57:39.720Z,100592.81
2023-11-25T16:00:14.393Z,100588.22
2023-11-25T16:02:41.992Z,100596.16
2023-11-25T16:05:13.193Z,100597.94
2023-11-25T16:07:39.588Z,100601.72
2023-11-25T16:10:08.595Z,100602.25
2023-11-25T16:12:34.943Z,100602.25
2023-11-25T16:15:01.475Z,100611.16
2023-11-25T16:17:28.326Z,100615.91
2023-11-25T16:19:54.883Z,100629.47
2023-11-25T16:22:21.256Z,100620.91
2023-11-25T16:24:47.610Z,100622.53
2023-11-25T16:27:13.987Z,100626.25
2023-11-25T16:29:40.325Z,100636.75
2023-11-25T16:32:07.064Z,100635.69
2023-11-25T16:34:33.486Z,100639.22
2023-11-25T16:36:59.881Z,100634.56
2023-11-25T16:39:29.048Z,100642.19
2023-11-25T16:41:55.721Z,100641.28
2023-11-25T16:44:22.388Z,100641.44
2023-11-25T16:46:48.941Z,100649.84
2023-11-25T16:49:15.784Z,100650.13
2023-11-25T16:51:46.271Z,100646.72
2023-11-25T16:54:13.367Z,100655.09
2023-11-25T16:56:39.732Z,100655.97
2023-11-25T16:59:06.286Z,100659.53
2023-11-25T17:01:32.870Z,100660.53
2023-11-25T17:03:59.434Z,100655.09
2023-11-25T17:06:25.899Z,100652.38
2023-11-25T17:08:53.041Z,100657.00
2023-11-25T17:11:19.398Z,100654.56
2023-11-25T17:13:45.775Z,100657.13
2023-11-25T17:16:16.195Z,100652.78
2023-11-25T17:18:42.525Z,100649.47
2023-11-25T17:21:08.868Z,100656.66
2023-11-25T17:23:36.036Z,100660.94
2023-11-25T17:26:02.755Z,100659.50
2023-11-25T17:28:30.572Z,100675.09
2023-11-25T17:30:56.947Z,100669.78
2023-11-25T17:33:23.398Z,100677.31
2023-11-25T17:35:50.488Z,100681.41
2023-11-25T17:38:18.497Z,100681.97
2023-11-25T17:40:44.952Z,100677.16
2023-11-25T17:43:11.475Z,100680.16
2023-11-25T17:45:37.811Z,100680.28
2023-11-25T17:48:04.561Z,100692.16
2023-11-25T17:50:30.903Z,100685.09
2023-11-25T17:53:06.757Z,100688.13
2023-11-25T17:55:38.677Z,100699.56
2023-11-25T17:58:05.047Z,100707.94
2023-11-25T18:00:31.608Z,100710.31
2023-11-25T18:02:58.118Z,100702.78
2023-11-25T18:05:24.594Z,100707.50
2023-11-25T18:07:51.514Z,100704.44
2023-11-25T18:10:17.939Z,100710.97
2023-11-25T18:12:45.884Z,100715.09
2023-11-25T18:15:14.151Z,100710.81
2023-11-25T18:17:40.578Z,100707.00
2023-11-25T18:20:07.691Z,100719.63
2023-11-25T18:22:34.156Z,100726.63
2023-11-25T18:25:00.577Z,100730.75
2023-11-25T18:27:27.268Z,100735.84
2023-11-25T18:29:53.927Z,100732.94
2023-11-25T18:32:20.273Z,100730.59
2023-11-25T18:34:46.635Z,100729.03
2023-11-25T18:37:13.234Z,100726.13
2023-11-25T18:39:39.997Z,100732.38
2023-11-25T18:42:06.423Z,100729.03
2023-11-25T18:44:32.777Z,100729.13
2023-11-25T18:46:59.291Z,100724.66
2023-11-25T18:49:25.715Z,100732.81
2023-11-25T18:51:52.044Z,100735.09
2023-11-25T18:54:18.734Z,100735.00
2023-11-25T18:56:45.099Z,100734.81
2023-11-25T18:59:11.617Z,100741.81
2023-11-25T19:01:39.838Z,100733.50
2023-11-25T19:04:07.291Z,100729.69
2023-11-25T19:06:34.407Z,100732.22
2023-11-25T19:09:01.370Z,100730.41
2023-11-25T19:11:28.357Z,100735.13
2023-11-25T19:13:54.923Z,100750.41
2023-11-25T19:16:22.195Z,100742.19
2023-11-25T19:18:49.486Z,100751.22
2023-11-25T19:21:16.387Z,100750.56
2023-11-25T19:23:43.074Z,100763.84
2023-11-25T19:26:10.505Z,100762.34
2023-11-25T19:28:37.406Z,100765.41
2023-11-25T19:31:04.010Z,100774.03
2023-11-25T19:33:30.573Z,100766.75
2023-11-25T19:35:57.151Z,100762.75
2023-11-25T19:38:23.499Z,100759.66
2023-11-25T19:40:49.891Z,100758.59
2023-11-25T19:43:16.268Z,100761.25
2023-11-25T19:45:42.642Z,100764.34
2023-11-25T19:48:09.180Z,100770.53
2023-11-25T19:50:37.422Z,100774.59
2023-11-25T19:53:04.568Z,100770.16
2023-11-25T19:55:30.956Z,100778.00
2023-11-25T19:57:57.353Z,100784.38
2023-11-25T20:00:25.009Z,100788.00
2023-11-25T20:02:51.553Z,100789.63
2023-11-25T20:05:18.218Z,100795.72
2023-11-25T20:07:46.414Z,100798.66
2023-11-25T20:10:13.423Z,100805.97
2023-11-25T20:12:40.168Z,100812.25
2023-11-25T20:15:07.445Z,100808.41
2023-11-25T20:17:34.023Z,100806.53
2023-11-25T20:20:00.842Z,100810.28
2023-11-25T20:22:27.270Z,100810.75
2023-11-25T20:24:53.703Z,100807.19
2023-11-25T20:27:20.412Z,100796.81
2023-11-25T20:29:47.228Z,100808.06
2023-11-25T20:32:13.720Z,100806.94
2023-11-25T20:34:40.276Z,100806.16
2023-11-25T20:37:07.350Z,100811.88
2023-11-25T20:39:34.256Z,100808.63
2023-11-25T20:42:00.669Z,100810.72
2023-11-25T20:44:27.092Z,100815.78
2023-11-25T20:46:53.593Z,100813.78
2023-11-25T20:49:20.156Z,100814.16
2023-11-25T20:51:46.613Z,100808.50
2023-11-25T20:54:13.043Z,100806.66
2023-11-25T20:56:39.409Z,100815.81
2023-11-25T20:59:06.552Z,100818.44
2023-11-25T21:01:32.935Z,100824.78
2023-11-25T21:03:59.473Z,100827.53
2023-11-25T21:06:25.878Z,100824.47
2023-11-25T21:08:52.322Z,100827.88
2023-11-25T21:11:18.680Z,100829.25
2023-11-25T21:13:45.236Z,100836.97
2023-11-25T21:16:15.193Z,100830.00
2023-11-25T21:18:43.292Z,100834.34
2023-11-25T21:21:09.731Z,100825.34
2023-11-25T21:23:39.624Z,100828.56
2023-11-25T21:26:07.114Z,100838.56
2023-11-25T21:28:33.582Z,100836.53
2023-11-25T21:30:59.940Z,100836.59
2023-11-25T21:33:26.298Z,100839.53
2023-11-25T21:35:54.367Z,100835.09
2023-11-25T21:38:20.792Z,100837.13
2023-11-25T21:40:47.187Z,100836.59
2023-11-25T21:43:13.553Z,100840.03
2023-11-25T21:45:40.078Z,100846.91
2023-11-25T21:48:06.580Z,100849.50
2023-11-25T21:50:33.470Z,100858.69
2023-11-25T21:53:01.179Z,100848.78
2023-11-25T21:55:27.802Z,100854.53
2023-11-25T21:57:54.179Z,100852.56
2023-11-25T22:00:20.756Z,100854.34
2023-11-25T22:02:56.890Z,100851.69
2023-11-25T22:05:23.377Z,100854.91
2023-11-25T22:07:49.747Z,100862.59
2023-11-25T22:10:24.754Z,100864.84
2023-11-25T22:12:58.762Z,100871.88
2023-11-25T22:15:25.487Z,100878.59
2023-11-25T22:17:52.094Z,100879.63
2023-11-25T22:20:18.597Z,100880.78
2023-11-25T22:22:45.210Z,100880.03
2023-11-25T22:25:13.795Z,100889.19
2023-11-25T22:27:41.214Z,100891.09
2023-11-25T22:30:09.042Z,100889.81
2023-11-25T22:32:35.505Z,100892.31
2023-11-25T22:35:02.036Z,100884.00
2023-11-25T22:37:28.570Z,100888.69
2023-11-25T22:39:55.071Z,100883.50
2023-11-25T22:42:21.401Z,100895.25
2023-11-25T22:44:47.742Z,100893.94
2023-11-25T22:47:14.158Z,100903.47
2023-11-25T22:49:40.542Z,100906.25
2023-11-25T22:52:06.889Z,100907.94
2023-11-25T22:54:36.255Z,100909.47
2023-11-25T22:57:02.651Z,100913.06
2023-11-25T22:59:29.097Z,100914.31
2023-11-25T23:01:56.287Z,100918.78
2023-11-25T23:04:22.799Z,100911.78
2023-11-25T23:06:49.881Z,100917.47
2023-11-25T23:09:16.287Z,100914.63
2023-11-25T23:11:42.653Z,100916.91
2023-11-25T23:14:09.077Z,100912.44
2023-11-25T23:16:35.667Z,100914.50
2023-11-25T23:19:02.056Z,100914.66
2023-11-25T23:21:28.434Z,100917.78
2023-11-25T23:23:56.198Z,100915.59
2023-11-25T23:26:22.699Z,100915.69
2023-11-25T23:28:49.351Z,100909.28
2023-11-25T23:31:15.712Z,100913.41
2023-11-25T23:33:42.120Z,100915.25
2023-11-25T23:36:10.364Z,100911.59
2023-11-25T23:38:36.790Z,100918.28
2023-11-25T23:41:03.221Z,100918.06
2023-11-25T23:43:31.160Z,100922.56
2023-11-25T23:45:57.599Z,100926.84
2023-11-25T23:48:24.413Z,100924.78
2023-11-25T23:50:50.804Z,100918.97
2023-11-25T23:53:17.204Z,100919.88
2023-11-25T23:55:43.740Z,100924.34
2023-11-25T23:58:10.194Z,100925.66
